Terminal Aerodrome Forecast
Issued by NWS Pittsburgh, PA

Current Version | Previous Version | Graphics & Text | Print | Product List | Glossary On
Versions: 1 2 3 4 5 6 7 8 9 10 11 12 13 14 15 16 17 18 19 20 21 22 23 24 25 26 27 28 29 30 31 32 33 34
000
FTUS41 KPBZ 291800 AAA
TAFPIT
TAF AMD
KPIT 291806Z 2918/3024 18010G18KT 6SM -FZRA OVC040
      TEMPO 2918/2919 2SM -SHSN
     FM291900 20010G20KT P6SM OVC040
     FM300000 25012G24KT 2SM -SHSN OVC008
     FM300900 29012G24KT 3SM -SHSN OVC012=

USA.gov is the U.S. government's official web portal to all federal, state and local government web resources and services.